Hondo — WDI7389 — position and weather

sailwx.info

Track history (hours):
 
Tides and Currents Weather Stations Pressure Air Temp Water Temp Dewpoint Dewpoint Depression Visibility Wind Speed Wind Dir Waves Ship Positions

Hondo

Owner: Kirby Inland Marine LP, Houston, TX. More information available from US FCC via Universal Licensing System and Coast Guard Vessel Documentation Center.

Last reported at 2018-May-07 18:41 UTC. Time now 2018-May-22 02:14 UTC.
Position N 39°09' W 090°43'.
Warning: this ship's position is 14 days out of date.

Length 300 m; draft 2.8 m.

Type: . MMSI: 367728240.

Date/timePositionNaut miles runAvg speedWind from/ knotsBaromVisibWave heightAir tempDewpointWater temp
2018-May-07 18:41N 39°09' W 090°43'1 0.5
2018-May-07 17:37N 39°08' W 090°42'0 0.2
2018-May-07 17:16N 39°08' W 090°42'1 4.8
2018-May-07 17:01N 39°07' W 090°42'1 1.0
2018-May-07 16:29N 39°07' W 090°41'3 3.8
2018-May-07 15:43N 39°04' W 090°42'1 4.4
2018-May-07 15:30N 39°03' W 090°43'2 4.1
2018-May-07 15:01N 39°01' W 090°42'1 1.4
2018-May-07 14:09N 39°00' W 090°41'0 0.0
2018-May-07 14:00N 39°00' W 090°41'0 0.0
2018-May-07 13:30N 39°00' W 090°41'0 0.1
2018-May-07 13:00N 39°00' W 090°41'0 0.6
2018-May-07 12:30N 38°60' W 090°41'1 1.7
2018-May-07 12:01N 38°59' W 090°41'3 4.8
2018-May-07 11:28N 38°57' W 090°40'2 4.5
2018-May-07 11:01N 38°55' W 090°39'2 4.6
2018-May-07 10:30N 38°53' W 090°37'2 4.4
2018-May-07 10:00N 38°52' W 090°35'2 4.6
2018-May-07 09:30N 38°53' W 090°32'2 4.7
2018-May-07 09:00N 38°55' W 090°30'2 4.5
2018-May-07 08:30N 38°57' W 090°29'1 2.0
2018-May-07 08:01N 38°57' W 090°28'0 0.0
2018-May-07 07:30N 38°57' W 090°28'0 0.2
2018-May-07 07:00N 38°57' W 090°27'1 2.7
2018-May-07 06:31N 38°58' W 090°26'2 4.5
2018-May-07 06:01N 38°57' W 090°23'1 2.3
2018-May-07 05:30N 38°57' W 090°22'2 5.0
2018-May-07 05:00N 38°55' W 090°19'2 4.8
2018-May-07 04:30N 38°55' W 090°16'2 4.4
2018-May-07 04:00N 38°55' W 090°13'2 4.2
2018-May-07 03:30N 38°53' W 090°11'2 4.1
2018-May-07 03:01N 38°52' W 090°09'0 0.5
2018-May-07 02:31N 38°52' W 090°09'1 1.4
2018-May-07 02:00N 38°52' W 090°08'0 0.1
2018-May-07 01:30N 38°52' W 090°08'0 0.0
2018-May-07 01:00N 38°52' W 090°08'0 0.0
2018-May-07 00:30N 38°52' W 090°08'0 0.0
2018-May-07 00:00N 38°52' W 090°08'0 0.0
2018-May-06 23:30N 38°52' W 090°08'1 2.0
2018-May-06 23:01N 38°51' W 090°07'6 5.7
2018-May-06 21:53N 38°45' W 090°09'2 4.3
2018-May-06 21:22N 38°43' W 090°10'1 1.6
2018-May-06 20:45N 38°42' W 090°11'1 2.0
2018-May-06 20:26N 38°41' W 090°11'2 4.7
2018-May-06 20:00N 38°40' W 090°11'0 0.3
2018-May-06 19:23N 38°39' W 090°11'7 5.1
2018-May-06 17:56N 38°33' W 090°15'  
2018-Apr-29 10:16N 32°40' W 091°08'3 4.8
2018-Apr-29 09:43N 32°37' W 091°09'1 5.0
2018-Apr-29 09:29N 32°36' W 091°08'2 4.6
2018-Apr-29 09:00N 32°34' W 091°07'3 5.1
2018-Apr-29 08:30N 32°32' W 091°06'3 6.0
2018-Apr-29 08:00N 32°29' W 091°07'2 4.6
2018-Apr-29 07:30N 32°27' W 091°05'3 5.7
2018-Apr-29 07:00N 32°26' W 091°02'2 4.7
2018-Apr-29 06:30N 32°25' W 090°60'3 5.2
2018-Apr-29 06:00N 32°22' W 091°00'2 4.1
2018-Apr-29 05:30N 32°21' W 090°58'1 1.2
2018-Apr-29 05:00N 32°21' W 090°58'2 3.7
2018-Apr-29 04:30N 32°20' W 090°56'2 3.7
2018-Apr-29 04:00N 32°19' W 090°55'3 5.1
2018-Apr-29 03:30N 32°17' W 090°57'3 5.2
2018-Apr-29 03:00N 32°15' W 090°59'3 5.6
2018-Apr-29 02:30N 32°12' W 090°59'3 5.1
2018-Apr-29 02:01N 32°10' W 090°60'3 5.5
2018-Apr-29 01:30N 32°07' W 091°01'4 5.1
2018-Apr-29 00:49N 32°08' W 091°05'2 4.9
2018-Apr-29 00:30N 32°07' W 091°06'4 5.7
2018-Apr-28 23:45N 32°03' W 091°04'1 5.3
2018-Apr-28 23:29N 32°02' W 091°04'8 1.0
2018-Apr-28 15:49N 31°57' W 091°11'710.0
2018-Apr-28 15:09N 32°01' W 091°05'212.1
2018-Apr-28 14:59N 32°02' W 091°04'5 9.9
2018-Apr-28 14:30N 32°06' W 091°06'3 6.9
2018-Apr-28 14:00N 32°07' W 091°02'510.5
2018-Apr-28 13:30N 32°12' W 090°59'510.7
2018-Apr-28 13:00N 32°17' W 090°57'4 8.4
2018-Apr-28 12:31N 32°21' W 090°55'3 5.6
2018-Apr-28 12:00N 32°21' W 090°59'0 0.0
2018-Apr-28 11:30N 32°21' W 090°59'0 0.0
2018-Apr-28 11:00N 32°21' W 090°59'0 0.0
2018-Apr-28 10:29N 32°21' W 090°59'1 1.4
2018-Apr-28 10:00N 32°21' W 090°59'4 8.6
2018-Apr-28 09:30N 32°25' W 091°00'612.1
2018-Apr-28 09:00N 32°28' W 091°07'510.0
2018-Apr-28 08:30N 32°33' W 091°06'5 9.5
2018-Apr-28 08:00N 32°37' W 091°09'510.2
2018-Apr-28 07:28N 32°41' W 091°04'6 7.6
2018-Apr-28 06:40N 32°45' W 091°09'210.9
2018-Apr-28 06:30N 32°47' W 091°09'  
Track history (hours):
 
Tides and Currents Weather Stations Pressure Air Temp Water Temp Dewpoint Dewpoint Depression Visibility Wind Speed Wind Dir Waves Ship Positions

Hondo

Owner: Kirby Inland Marine LP, Houston, TX. More information available from US FCC via Universal Licensing System and Coast Guard Vessel Documentation Center.

Last reported at 2018-May-07 18:41 UTC. Time now 2018-May-22 02:14 UTC.
Position N 39°09' W 090°43'.
Warning: this ship's position is 14 days out of date.

Length 300 m; draft 2.8 m.

Type: . MMSI: 367728240.

Date/timePositionNaut miles runAvg speedWind from/ knotsBaromVisibWave heightAir tempDewpointWater temp
2018-May-07 18:41N 39°09' W 090°43'1 0.5
2018-May-07 17:37N 39°08' W 090°42'0 0.2
2018-May-07 17:16N 39°08' W 090°42'1 4.8
2018-May-07 17:01N 39°07' W 090°42'1 1.0
2018-May-07 16:29N 39°07' W 090°41'3 3.8
2018-May-07 15:43N 39°04' W 090°42'1 4.4
2018-May-07 15:30N 39°03' W 090°43'2 4.1
2018-May-07 15:01N 39°01' W 090°42'1 1.4
2018-May-07 14:09N 39°00' W 090°41'0 0.0
2018-May-07 14:00N 39°00' W 090°41'0 0.0
2018-May-07 13:30N 39°00' W 090°41'0 0.1
2018-May-07 13:00N 39°00' W 090°41'0 0.6
2018-May-07 12:30N 38°60' W 090°41'1 1.7
2018-May-07 12:01N 38°59' W 090°41'3 4.8
2018-May-07 11:28N 38°57' W 090°40'2 4.5
2018-May-07 11:01N 38°55' W 090°39'2 4.6
2018-May-07 10:30N 38°53' W 090°37'2 4.4
2018-May-07 10:00N 38°52' W 090°35'2 4.6
2018-May-07 09:30N 38°53' W 090°32'2 4.7
2018-May-07 09:00N 38°55' W 090°30'2 4.5
2018-May-07 08:30N 38°57' W 090°29'1 2.0
2018-May-07 08:01N 38°57' W 090°28'0 0.0
2018-May-07 07:30N 38°57' W 090°28'0 0.2
2018-May-07 07:00N 38°57' W 090°27'1 2.7
2018-May-07 06:31N 38°58' W 090°26'2 4.5
2018-May-07 06:01N 38°57' W 090°23'1 2.3
2018-May-07 05:30N 38°57' W 090°22'2 5.0
2018-May-07 05:00N 38°55' W 090°19'2 4.8
2018-May-07 04:30N 38°55' W 090°16'2 4.4
2018-May-07 04:00N 38°55' W 090°13'2 4.2
2018-May-07 03:30N 38°53' W 090°11'2 4.1
2018-May-07 03:01N 38°52' W 090°09'0 0.5
2018-May-07 02:31N 38°52' W 090°09'1 1.4
2018-May-07 02:00N 38°52' W 090°08'0 0.1
2018-May-07 01:30N 38°52' W 090°08'0 0.0
2018-May-07 01:00N 38°52' W 090°08'0 0.0
2018-May-07 00:30N 38°52' W 090°08'0 0.0
2018-May-07 00:00N 38°52' W 090°08'0 0.0
2018-May-06 23:30N 38°52' W 090°08'1 2.0
2018-May-06 23:01N 38°51' W 090°07'6 5.7
2018-May-06 21:53N 38°45' W 090°09'2 4.3
2018-May-06 21:22N 38°43' W 090°10'1 1.6
2018-May-06 20:45N 38°42' W 090°11'1 2.0
2018-May-06 20:26N 38°41' W 090°11'2 4.7
2018-May-06 20:00N 38°40' W 090°11'0 0.3
2018-May-06 19:23N 38°39' W 090°11'7 5.1
2018-May-06 17:56N 38°33' W 090°15'  
2018-Apr-29 10:16N 32°40' W 091°08'3 4.8
2018-Apr-29 09:43N 32°37' W 091°09'1 5.0
2018-Apr-29 09:29N 32°36' W 091°08'2 4.6
2018-Apr-29 09:00N 32°34' W 091°07'3 5.1
2018-Apr-29 08:30N 32°32' W 091°06'3 6.0
2018-Apr-29 08:00N 32°29' W 091°07'2 4.6
2018-Apr-29 07:30N 32°27' W 091°05'3 5.7
2018-Apr-29 07:00N 32°26' W 091°02'2 4.7
2018-Apr-29 06:30N 32°25' W 090°60'3 5.2
2018-Apr-29 06:00N 32°22' W 091°00'2 4.1
2018-Apr-29 05:30N 32°21' W 090°58'1 1.2
2018-Apr-29 05:00N 32°21' W 090°58'2 3.7
2018-Apr-29 04:30N 32°20' W 090°56'2 3.7
2018-Apr-29 04:00N 32°19' W 090°55'3 5.1
2018-Apr-29 03:30N 32°17' W 090°57'3 5.2
2018-Apr-29 03:00N 32°15' W 090°59'3 5.6
2018-Apr-29 02:30N 32°12' W 090°59'3 5.1
2018-Apr-29 02:01N 32°10' W 090°60'3 5.5
2018-Apr-29 01:30N 32°07' W 091°01'4 5.1
2018-Apr-29 00:49N 32°08' W 091°05'2 4.9
2018-Apr-29 00:30N 32°07' W 091°06'4 5.7
2018-Apr-28 23:45N 32°03' W 091°04'1 5.3
2018-Apr-28 23:29N 32°02' W 091°04'8 1.0
2018-Apr-28 15:49N 31°57' W 091°11'710.0
2018-Apr-28 15:09N 32°01' W 091°05'212.1
2018-Apr-28 14:59N 32°02' W 091°04'5 9.9
2018-Apr-28 14:30N 32°06' W 091°06'3 6.9
2018-Apr-28 14:00N 32°07' W 091°02'510.5
2018-Apr-28 13:30N 32°12' W 090°59'510.7
2018-Apr-28 13:00N 32°17' W 090°57'4 8.4
2018-Apr-28 12:31N 32°21' W 090°55'3 5.6
2018-Apr-28 12:00N 32°21' W 090°59'0 0.0
2018-Apr-28 11:30N 32°21' W 090°59'0 0.0
2018-Apr-28 11:00N 32°21' W 090°59'0 0.0
2018-Apr-28 10:29N 32°21' W 090°59'1 1.4
2018-Apr-28 10:00N 32°21' W 090°59'4 8.6
2018-Apr-28 09:30N 32°25' W 091°00'612.1
2018-Apr-28 09:00N 32°28' W 091°07'510.0
2018-Apr-28 08:30N 32°33' W 091°06'5 9.5
2018-Apr-28 08:00N 32°37' W 091°09'510.2
2018-Apr-28 07:28N 32°41' W 091°04'6 7.6
2018-Apr-28 06:40N 32°45' W 091°09'210.9
2018-Apr-28 06:30N 32°47' W 091°09'  

Dump ship's entire track history